Time;durP1;ratioP1;P1;durP2;ratioP2;P2;SDS_P1;SDS_P2;PMS_P1;PMS_P2;Temp;Humidity;BMP_temperature;BMP_pressure;BME280_temperature;BME280_humidity;BME280_pressure;Samples;Min_cycle;Max_cycle;Signal;HPM_P1;HPM_P2
2023/07/13 00:04:30;;;;;;;14.10;13.10;;;17.10;94.60;;;;;;2616160;46;20406;-78
2023/07/13 00:10:18;;;;;;;12.97;12.00;;;16.70;99.90;;;;;;2616583;54;20258;-80
2023/07/13 00:16:07;;;;;;;13.40;12.67;;;16.50;99.90;;;;;;2616760;54;20157;-80
2023/07/13 00:21:55;;;;;;;13.07;12.07;;;16.20;99.90;;;;;;2615213;54;21037;-80
2023/07/13 00:27:44;;;;;;;13.00;12.30;;;16.10;99.90;;;;;;2615203;54;20949;-80
2023/07/13 00:33:33;;;;;;;13.07;12.27;;;15.90;99.90;;;;;;2615521;54;20477;-83
2023/07/13 00:39:20;;;;;;;12.73;11.80;;;15.90;99.90;;;;;;2616014;54;20459;-83
2023/07/13 00:45:11;;;;;;;13.90;12.67;;;15.70;99.90;;;;;;2616867;54;20118;-81
2023/07/13 00:51:01;;;;;;;11.20;10.70;;;15.60;99.90;;;;;;2616826;54;20388;-78
2023/07/13 00:56:53;;;;;;;12.67;11.43;;;15.60;99.90;;;;;;2616484;54;20929;-79
2023/07/13 01:06:03;;;;;;;11.20;10.10;;;15.60;99.90;;;;;;2616141;54;21017;-79
2023/07/13 01:11:51;;;;;;;12.67;11.77;;;15.30;99.90;;;;;;2615369;54;20396;-79
2023/07/13 01:17:39;;;;;;;10.90;10.20;;;15.30;99.90;;;;;;2615270;54;20669;-79
2023/07/13 01:23:28;;;;;;;11.70;11.00;;;15.20;99.90;;;;;;2615054;54;20130;-79
2023/07/13 01:29:16;;;;;;;11.30;10.57;;;15.00;99.90;;;;;;2615123;39;20902;-79
2023/07/13 01:35:04;;;;;;;12.27;11.33;;;15.00;99.90;;;;;;2614951;54;20151;-77
2023/07/13 01:40:53;;;;;;;12.53;11.73;;;15.00;99.90;;;;;;2615379;54;20378;-78
2023/07/13 01:46:41;;;;;;;11.47;10.67;;;14.90;99.90;;;;;;2615335;54;20394;-78
2023/07/13 01:52:28;;;;;;;11.17;10.30;;;15.00;99.90;;;;;;2613901;54;20221;-79
2023/07/13 01:58:16;;;;;;;10.80;10.13;;;14.90;99.90;;;;;;2613971;54;20321;-78
2023/07/13 02:01:34;;;;;;;11.17;10.37;;;14.80;99.90;;;;;;2613487;47;20415;-79
2023/07/13 02:04:00;;;;;;;11.10;10.30;;;14.90;99.90;;;;;;2615753;54;20150;-78
2023/07/13 02:09:47;;;;;;;10.23;9.63;;;14.80;99.90;;;;;;2614170;54;20146;-76
2023/07/13 02:15:39;;;;;;;10.93;10.17;;;15.00;99.90;;;;;;2613084;54;20155;-74
2023/07/13 02:21:27;;;;;;;10.90;9.97;;;14.90;99.90;;;;;;2614187;54;20405;-79
2023/07/13 02:27:15;;;;;;;9.97;9.17;;;14.90;99.90;;;;;;2614511;54;20135;-79
2023/07/13 02:33:03;;;;;;;9.20;8.60;;;14.90;99.90;;;;;;2616142;54;20137;-79
2023/07/13 02:38:50;;;;;;;9.80;9.30;;;14.80;99.90;;;;;;2616164;54;20138;-79
2023/07/13 02:44:38;;;;;;;9.33;8.73;;;14.60;99.90;;;;;;2614377;54;20235;-79
2023/07/13 02:50:26;;;;;;;9.63;9.23;;;14.70;99.90;;;;;;2616466;54;20134;-78
2023/07/13 02:56:14;;;;;;;9.00;8.20;;;14.60;99.90;;;;;;2614804;54;20412;-78
2023/07/13 03:06:05;;;;;;;9.03;8.43;;;14.60;99.90;;;;;;2614037;54;20450;-78
2023/07/13 03:11:54;;;;;;;9.60;8.77;;;14.70;99.90;;;;;;2615885;54;20471;-77
2023/07/13 03:17:42;;;;;;;9.93;9.10;;;14.60;99.90;;;;;;2614915;54;20405;-78
2023/07/13 03:23:30;;;;;;;9.00;8.60;;;14.60;99.90;;;;;;2616080;46;20183;-78
2023/07/13 03:29:18;;;;;;;9.93;8.77;;;14.70;99.90;;;;;;2617170;54;20358;-81
2023/07/13 03:35:06;;;;;;;9.10;8.50;;;14.60;99.90;;;;;;2626346;31;20633;-83
2023/07/13 03:40:55;;;;;;;8.47;7.77;;;14.50;99.90;;;;;;2622266;54;20483;-82
2023/07/13 03:46:43;;;;;;;9.60;8.67;;;14.60;99.90;;;;;;2614596;54;20682;-78
2023/07/13 03:52:31;;;;;;;15.57;8.57;;;14.50;99.90;;;;;;2615572;54;20497;-78
2023/07/13 04:04:46;;;;;;;12.43;8.60;;;14.80;99.90;;;;;;2615250;54;20408;-78
2023/07/13 04:10:34;;;;;;;9.30;8.40;;;15.00;99.90;;;;;;2615292;54;20933;-82
2023/07/13 04:16:22;;;;;;;9.50;8.90;;;15.10;99.90;;;;;;2616777;54;20122;-79
2023/07/13 04:22:10;;;;;;;9.70;8.93;;;15.30;99.90;;;;;;2616156;54;20419;-82
2023/07/13 04:27:57;;;;;;;8.70;8.10;;;15.30;99.90;;;;;;2614759;54;20207;-81
2023/07/13 04:33:45;;;;;;;11.00;8.77;;;15.30;99.90;;;;;;2615939;39;20550;-82
2023/07/13 04:39:33;;;;;;;8.53;7.73;;;15.50;99.90;;;;;;2616017;54;20179;-75
2023/07/13 04:45:21;;;;;;;9.43;8.60;;;15.80;99.90;;;;;;2614923;54;20179;-76
2023/07/13 04:51:08;;;;;;;8.60;8.00;;;15.80;99.90;;;;;;2615419;39;20539;-75
2023/07/13 04:56:56;;;;;;;9.00;8.50;;;15.80;99.90;;;;;;2614528;54;20649;-82
2023/07/13 05:02:47;;;;;;;8.63;8.03;;;16.10;99.90;;;;;;2615157;54;20318;-81
2023/07/13 05:06:06;;;;;;;10.17;9.37;;;16.00;99.90;;;;;;2616290;39;20832;-83
2023/07/13 05:08:32;;;;;;;9.33;8.40;;;16.00;99.90;;;;;;2615789;54;20375;-81
2023/07/13 05:14:19;;;;;;;9.33;8.63;;;16.30;99.90;;;;;;2615056;54;20260;-82
2023/07/13 05:20:09;;;;;;;10.00;9.20;;;16.30;99.90;;;;;;2615302;54;20645;-82
2023/07/13 05:25:57;;;;;;;10.67;9.97;;;16.40;99.90;;;;;;2616537;54;20410;-83
2023/07/13 05:31:45;;;;;;;9.17;8.57;;;16.80;99.90;;;;;;2612925;54;20391;-82
2023/07/13 05:37:33;;;;;;;9.53;8.60;;;16.70;99.90;;;;;;2615830;54;20662;-82
2023/07/13 05:43:21;;;;;;;10.63;9.20;;;16.90;99.90;;;;;;2615343;54;20130;-83
2023/07/13 05:49:09;;;;;;;8.63;8.13;;;16.90;99.90;;;;;;2615506;54;20951;-81
2023/07/13 05:54:57;;;;;;;9.17;8.27;;;16.80;99.90;;;;;;2615613;54;20138;-80
2023/07/13 06:00:46;;;;;;;15.20;9.00;;;17.20;99.90;;;;;;2616103;54;20187;-75
2023/07/13 06:10:35;;;;;;;10.87;9.77;;;17.20;99.90;;;;;;2615007;54;20391;-84
2023/07/13 06:16:23;;;;;;;10.60;9.53;;;17.20;99.90;;;;;;2614757;54;20507;-82
2023/07/13 06:22:11;;;;;;;9.70;8.80;;;17.30;99.90;;;;;;2615817;54;20375;-82
2023/07/13 06:27:58;;;;;;;11.60;9.47;;;18.40;99.90;;;;;;2614301;54;20678;-78
2023/07/13 06:33:46;;;;;;;11.17;10.10;;;19.30;99.90;;;;;;2612976;54;20123;-78
2023/07/13 06:39:34;;;;;;;9.00;8.50;;;18.80;99.90;;;;;;2613526;54;20171;-78
2023/07/13 06:45:23;;;;;;;10.53;9.63;;;18.50;99.90;;;;;;2612825;54;20842;-78
2023/07/13 06:51:10;;;;;;;10.97;9.77;;;19.70;99.90;;;;;;2614584;54;20379;-79
2023/07/13 06:56:59;;;;;;;12.40;10.43;;;18.90;99.90;;;;;;2614700;54;20905;-78
2023/07/13 07:02:47;;;;;;;11.13;9.37;;;18.80;99.90;;;;;;2612560;54;20431;-77
2023/07/13 07:06:06;;;;;;;10.90;10.10;;;19.30;99.90;;;;;;2613284;39;20826;-80
2023/07/13 07:08:35;;;;;;;10.87;9.87;;;19.60;99.90;;;;;;2611601;54;20750;-77
2023/07/13 07:14:23;;;;;;;13.23;11.97;;;20.10;99.90;;;;;;2613661;54;20420;-78
2023/07/13 07:20:12;;;;;;;12.07;10.87;;;20.90;91.50;;;;;;2613601;54;20134;-83
2023/07/13 07:23:15;;;;;;;14.00;12.73;;;20.80;79.80;;;;;;2613222;47;20407;-84
2023/07/13 07:25:43;;;;;;;12.17;11.20;;;19.50;92.60;;;;;;2612740;54;20441;-82
2023/07/13 07:31:32;;;;;;;13.03;11.93;;;20.90;60.40;;;;;;2612964;54;20399;-82
2023/07/13 07:37:21;;;;;;;12.93;11.77;;;20.40;68.20;;;;;;2613582;39;20834;-83
2023/07/13 07:43:11;;;;;;;12.07;11.00;;;20.10;79.40;;;;;;2612543;39;20784;-82
2023/07/13 07:48:59;;;;;;;13.20;11.87;;;20.60;58.60;;;;;;2613814;54;20404;-83
2023/07/13 07:54:47;;;;;;;10.80;9.93;;;19.50;99.90;;;;;;2611816;39;20609;-83
2023/07/13 07:58:10;;;;;;;12.63;11.33;;;19.80;99.90;;;;;;2612298;54;20522;-75
2023/07/13 08:00:35;;;;;;;13.17;10.93;;;20.10;99.90;;;;;;2612858;54;20405;-76
2023/07/13 08:10:35;;;;;;;13.20;12.20;;;21.20;55.10;;;;;;2615188;54;21046;-80
2023/07/13 08:16:24;;;;;;;13.70;12.30;;;21.00;60.60;;;;;;2614069;39;20767;-82
2023/07/13 08:22:11;;;;;;;12.53;11.63;;;20.90;31.60;;;;;;2613796;54;20386;-82
2023/07/13 08:27:59;;;;;;;12.93;11.97;;;21.80;40.60;;;;;;2613142;54;20122;-84
2023/07/13 08:33:47;;;;;;;13.17;12.20;;;20.20;64.40;;;;;;2613836;54;20131;-82
2023/07/13 08:39:35;;;;;;;13.57;12.20;;;20.70;81.40;;;;;;2614719;54;20131;-81
2023/07/13 08:51:51;;;;;;;13.10;12.07;;;20.40;56.20;;;;;;2613364;54;20956;-79
2023/07/13 08:57:41;;;;;;;15.57;13.40;;;20.20;59.00;;;;;;2613196;54;20448;-82
2023/07/13 09:13:44;;;;;;;12.30;11.37;;;21.50;31.50;;;;;;2613573;54;20419;-83
2023/07/13 09:19:35;;;;;;;14.20;13.10;;;20.70;40.70;;;;;;2616307;54;20954;-82
2023/07/13 09:31:54;;;;;;;13.13;12.13;;;21.80;33.00;;;;;;2614924;54;20922;-82
2023/07/13 09:37:45;;;;;;;14.07;13.17;;;22.10;16.10;;;;;;2614224;54;20463;-83
2023/07/13 09:43:32;;;;;;;12.93;11.70;;;22.10;20.80;;;;;;2613872;54;20407;-82
2023/07/13 09:49:26;;;;;;;14.67;13.77;;;21.50;35.10;;;;;;2612800;54;20162;-83
2023/07/13 10:02:00;;;;;;;14.67;13.53;;;21.50;30.70;;;;;;2612410;54;20395;-83
2023/07/13 10:07:48;;;;;;;13.07;12.20;;;21.50;43.60;;;;;;2614321;54;20379;-81
2023/07/13 10:16:58;;;;;;;12.10;11.37;;;22.10;24.80;;;;;;2614314;54;20411;-83
2023/07/13 10:23:02;;;;;;;13.10;12.20;;;22.20;20.00;;;;;;2613641;54;21028;-81
2023/07/13 10:28:55;;;;;;;14.30;13.13;;;21.30;26.50;;;;;;2611936;54;20398;-82
2023/07/13 10:34:47;;;;;;;13.37;12.17;;;20.90;38.90;;;;;;2614583;54;21153;-82
2023/07/13 10:46:49;;;;;;;12.97;12.13;;;21.80;27.60;;;;;;2614745;54;20495;-84
2023/07/13 10:52:50;;;;;;;15.03;13.63;;;23.20;1.30;;;;;;2617122;54;20407;-83
2023/07/13 10:58:43;;;;;;;15.40;14.30;;;22.20;6.80;;;;;;2614022;54;20516;-82
2023/07/13 11:17:59;;;;;;;13.80;13.00;;;23.70;1.00;;;;;;2615200;54;20384;-83
2023/07/13 11:24:12;;;;;;;13.90;13.10;;;24.20;1.00;;;;;;2614934;54;21031;-75
2023/07/13 11:36:29;;;;;;;14.30;13.50;;;23.50;1.00;;;;;;2614655;54;20427;-76
2023/07/13 11:42:20;;;;;;;14.83;14.03;;;23.50;1.00;;;;;;2616299;54;20399;-75
2023/07/13 11:48:26;;;;;;;14.40;13.40;;;24.60;1.00;;;;;;2616143;54;20447;-81
2023/07/13 12:00:46;;;;;;;15.20;14.00;;;24.40;1.00;;;;;;2615845;39;20885;-80
2023/07/13 12:06:39;;;;;;;15.27;14.50;;;24.30;1.00;;;;;;2615434;54;20416;-79
2023/07/13 12:12:30;;;;;;;15.43;14.17;;;24.50;1.00;;;;;;2616351;46;20398;-79
2023/07/13 12:18:23;;;;;;;14.77;13.70;;;24.00;1.00;;;;;;2614948;39;20811;-79
2023/07/13 12:24:17;;;;;;;14.80;13.87;;;24.60;1.00;;;;;;2615165;54;20435;-79
2023/07/13 12:36:35;;;;;;;15.17;13.97;;;24.80;1.00;;;;;;2613302;54;20479;-79
2023/07/13 12:42:30;;;;;;;15.17;14.27;;;24.00;1.00;;;;;;2613290;54;21016;-79
2023/07/13 12:48:17;;;;;;;13.10;12.50;;;24.60;1.00;;;;;;2613716;54;20484;-81
2023/07/13 12:54:18;;;;;;;13.97;13.00;;;24.70;1.00;;;;;;2616348;54;20390;-83
2023/07/13 13:06:44;;;;;;;13.90;12.90;;;23.40;1.00;;;;;;2615146;54;20391;-75
2023/07/13 13:19:28;;;;;;;15.07;14.27;;;22.50;1.00;;;;;;2613777;54;20415;-76
2023/07/13 13:22:32;;;;;;;14.80;14.00;;;22.30;1.00;;;;;;2614082;47;20431;-76
2023/07/13 13:24:58;;;;;;;14.63;13.70;;;22.10;1.00;;;;;;2612714;54;20415;-76
2023/07/13 13:30:47;;;;;;;16.33;15.17;;;22.20;1.00;;;;;;2613294;54;20419;-76
2023/07/13 13:36:35;;;;;;;9.57;5.70;;;19.80;80.80;;;;;;2614656;54;20387;-79
2023/07/13 13:42:24;;;;;;;8.73;7.67;;;18.50;99.90;;;;;;2615641;54;20142;-83
2023/07/13 13:48:18;;;;;;;8.83;8.00;;;18.40;99.90;;;;;;2613418;39;20754;-83
2023/07/13 14:00:20;;;;;;;10.43;9.73;;;19.70;99.90;;;;;;2615610;54;20410;-82
2023/07/13 14:06:13;;;;;;;10.77;10.00;;;20.00;99.90;;;;;;2612867;39;20795;-81
2023/07/13 14:12:01;;;;;;;10.30;9.60;;;20.90;99.90;;;;;;2612636;54;20399;-78
2023/07/13 14:17:49;;;;;;;11.30;10.50;;;20.90;99.90;;;;;;2615816;54;20158;-78
2023/07/13 14:21:11;;;;;;;11.30;10.60;;;20.50;99.90;;;;;;2614278;47;20974;-78
2023/07/13 14:26:59;;;;;;;9.20;8.50;;;19.90;99.90;;;;;;2614486;54;20371;-78
2023/07/13 14:32:49;;;;;;;10.77;6.10;;;19.50;99.90;;;;;;2616082;54;20226;-79
2023/07/13 14:38:36;;;;;;;9.23;6.37;;;19.90;99.90;;;;;;2614974;54;20384;-79
2023/07/13 14:44:29;;;;;;;7.00;6.00;;;19.90;99.90;;;;;;2612432;54;20137;-78
2023/07/13 14:50:20;;;;;;;6.13;5.53;;;19.60;99.90;;;;;;2615475;54;20419;-79
2023/07/13 14:56:14;;;;;;;7.00;6.30;;;19.60;99.90;;;;;;2614055;54;20395;-79
2023/07/13 15:02:02;;;;;;;9.07;7.10;;;20.10;99.90;;;;;;2611969;54;20399;-79
2023/07/13 15:07:52;;;;;;;9.87;7.00;;;20.90;99.90;;;;;;2612744;54;20133;-79
2023/07/13 15:13:41;;;;;;;8.60;8.00;;;21.10;99.90;;;;;;2615050;54;20387;-77
2023/07/13 15:19:42;;;;;;;9.53;8.73;;;21.80;99.90;;;;;;2614134;54;20414;-79
2023/07/13 15:25:33;;;;;;;10.53;9.63;;;20.70;99.90;;;;;;2614823;54;20159;-79
2023/07/13 15:31:24;;;;;;;13.23;9.37;;;20.50;99.90;;;;;;2614108;54;20412;-79
2023/07/13 15:37:15;;;;;;;8.60;8.00;;;20.50;99.90;;;;;;2613171;54;21309;-77
2023/07/13 15:43:09;;;;;;;9.80;8.90;;;20.20;99.90;;;;;;2615129;54;20390;-79
2023/07/13 15:48:58;;;;;;;10.13;9.27;;;20.20;99.90;;;;;;2612151;54;20399;-80
2023/07/13 15:54:47;;;;;;;11.00;6.53;;;18.70;99.90;;;;;;2616188;54;20397;-81
2023/07/13 16:00:35;;;;;;;6.70;6.07;;;17.10;99.90;;;;;;2615618;54;20464;-82
2023/07/13 16:12:37;;;;;;;7.00;6.30;;;17.10;99.90;;;;;;2616564;54;20444;-85
2023/07/13 16:21:51;;;;;;;7.40;6.80;;;17.40;99.90;;;;;;2613908;54;20411;-84
2023/07/13 16:27:38;;;;;;;10.63;7.87;;;17.60;99.90;;;;;;2616161;54;20383;-84
2023/07/13 16:33:26;;;;;;;11.53;7.27;;;17.70;99.90;;;;;;2615989;39;20524;-84
2023/07/13 16:39:15;;;;;;;7.70;6.97;;;17.70;99.90;;;;;;2615699;54;20420;-85
2023/07/13 16:45:04;;;;;;;10.30;9.50;;;18.00;99.90;;;;;;2616251;39;20527;-82
2023/07/13 16:50:55;;;;;;;11.87;8.03;;;18.10;99.90;;;;;;2616411;54;20412;-82
2023/07/13 16:56:44;;;;;;;8.90;8.30;;;18.20;99.90;;;;;;2615166;54;20408;-81
2023/07/13 17:02:35;;;;;;;9.93;9.13;;;18.30;99.90;;;;;;2614349;54;20405;-82
2023/07/13 17:08:28;;;;;;;10.00;9.10;;;18.50;99.90;;;;;;2615245;54;20420;-82
2023/07/13 17:14:19;;;;;;;9.63;8.73;;;18.50;99.90;;;;;;2614899;54;20355;-82
2023/07/13 17:17:15;;;;;;;9.90;9.10;;;18.60;99.90;;;;;;2614888;54;20515;-82
2023/07/13 17:19:41;;;;;;;11.57;10.77;;;18.70;99.90;;;;;;2614122;54;20403;-82
2023/07/13 17:25:30;;;;;;;23.43;9.93;;;18.60;99.90;;;;;;2613279;54;20131;-80
2023/07/13 17:31:21;;;;;;;11.37;10.30;;;18.70;99.90;;;;;;2615719;54;20415;-82
2023/07/13 17:37:15;;;;;;;11.90;10.80;;;18.70;99.90;;;;;;2616621;39;20450;-82
2023/07/13 17:43:05;;;;;;;9.07;8.37;;;18.70;99.90;;;;;;2614438;54;20395;-77
2023/07/13 17:48:54;;;;;;;10.67;9.67;;;18.80;99.90;;;;;;2615070;54;20462;-84
2023/07/13 17:54:41;;;;;;;10.47;9.73;;;18.60;99.90;;;;;;2614498;54;20396;-83
2023/07/13 18:00:36;;;;;;;8.23;7.53;;;18.60;99.90;;;;;;2616069;39;20542;-78
2023/07/13 18:12:52;;;;;;;11.27;8.20;;;18.50;99.90;;;;;;2614968;54;20444;-79
2023/07/13 18:28:35;;;;;;;6.73;5.80;;;18.50;99.90;;;;;;2612243;54;20933;-78
2023/07/13 18:34:24;;;;;;;5.87;5.37;;;18.10;99.90;;;;;;2615869;54;20242;-79
2023/07/13 18:40:14;;;;;;;7.17;5.50;;;18.10;99.90;;;;;;2615154;54;20498;-79
2023/07/13 18:52:37;;;;;;;8.60;5.57;;;17.60;99.90;;;;;;2613649;54;20396;-81
2023/07/13 18:58:26;;;;;;;9.40;5.67;;;17.50;99.90;;;;;;2616442;54;20171;-81
2023/07/13 19:04:25;;;;;;;13.20;6.30;;;17.40;99.90;;;;;;2615467;54;20380;-81
2023/07/13 19:10:18;;;;;;;8.23;6.33;;;17.30;99.90;;;;;;2615451;54;20447;-81
2023/07/13 19:16:06;;;;;;;10.53;6.00;;;17.00;99.90;;;;;;2613637;54;20495;-81
2023/07/13 19:21:56;;;;;;;6.67;5.50;;;17.00;99.90;;;;;;2615211;54;20451;-81
2023/07/13 19:27:44;;;;;;;11.03;6.50;;;16.80;99.90;;;;;;2614845;54;20404;-81
2023/07/13 19:33:32;;;;;;;7.83;7.03;;;16.50;99.90;;;;;;2615819;54;20267;-81
2023/07/13 19:39:28;;;;;;;6.50;5.90;;;16.40;99.90;;;;;;2615398;54;20150;-80
2023/07/13 19:45:22;;;;;;;11.20;6.70;;;16.30;99.90;;;;;;2616472;54;20392;-81
2023/07/13 19:57:27;;;;;;;9.87;8.87;;;16.00;99.90;;;;;;2615091;54;20355;-82
2023/07/13 20:03:15;;;;;;;12.33;6.20;;;15.90;99.90;;;;;;2615704;46;20439;-77
2023/07/13 20:15:37;;;;;;;8.00;6.10;;;15.70;99.90;;;;;;2614759;54;20803;-81
2023/07/13 20:24:47;;;;;;;9.30;6.37;;;15.60;99.90;;;;;;2614688;54;21022;-79
2023/07/13 20:30:39;;;;;;;7.23;6.07;;;15.60;99.90;;;;;;2613821;54;20179;-79
2023/07/13 20:36:28;;;;;;;9.63;6.77;;;15.60;99.90;;;;;;2614378;54;20389;-79
2023/07/13 20:42:18;;;;;;;8.17;6.80;;;15.60;99.90;;;;;;2620679;54;20383;-83
2023/07/13 20:48:17;;;;;;;10.40;7.00;;;15.80;99.90;;;;;;2618768;54;20416;-84
2023/07/13 20:54:13;;;;;;;9.80;6.93;;;15.90;99.90;;;;;;2620411;39;20465;-85
2023/07/13 21:00:01;;;;;;;8.37;6.97;;;16.10;99.90;;;;;;2620310;46;20452;-83
2023/07/13 21:05:49;;;;;;;9.50;7.10;;;16.10;99.90;;;;;;2620445;54;20134;-86
2023/07/13 21:11:39;;;;;;;8.93;7.23;;;16.10;99.90;;;;;;2622618;54;20415;-84
2023/07/13 21:17:31;;;;;;;18.17;8.10;;;16.20;99.90;;;;;;2621191;54;20413;-84
2023/07/13 21:20:19;;;;;;;9.40;7.40;;;16.30;99.90;;;;;;2627888;54;20438;-83
2023/07/13 21:22:44;;;;;;;12.43;7.47;;;16.10;99.90;;;;;;2626481;47;20436;-85
2023/07/13 21:28:40;;;;;;;8.43;6.53;;;16.10;99.90;;;;;;2628248;54;20138;-84
2023/07/13 21:34:28;;;;;;;7.80;5.40;;;16.20;99.90;;;;;;2626292;39;20680;-85
2023/07/13 21:40:19;;;;;;;17.37;8.73;;;16.00;99.90;;;;;;2624619;54;20195;-85
2023/07/13 21:46:12;;;;;;;10.57;7.00;;;16.00;99.90;;;;;;2626959;54;20387;-85
2023/07/13 21:52:00;;;;;;;14.73;6.50;;;15.90;99.90;;;;;;2621761;54;20402;-85
2023/07/13 21:57:52;;;;;;;11.07;7.10;;;15.70;99.90;;;;;;2620857;54;20149;-85
2023/07/13 22:03:40;;;;;;;9.43;6.00;;;15.70;99.90;;;;;;2620418;54;20423;-87
2023/07/13 22:09:28;;;;;;;11.83;7.67;;;15.40;99.90;;;;;;2620080;54;20547;-85
2023/07/13 22:15:17;;;;;;;25.00;7.70;;;15.30;99.90;;;;;;2620410;54;20934;-85
2023/07/13 22:24:46;;;;;;;21.53;6.90;;;15.10;99.90;;;;;;2621900;54;20387;-87
2023/07/13 22:30:35;;;;;;;16.43;7.87;;;15.00;99.90;;;;;;2621874;54;20391;-86
2023/07/13 22:36:23;;;;;;;12.00;6.50;;;14.80;99.90;;;;;;2619034;47;20380;-85
2023/07/13 22:42:11;;;;;;;19.17;8.70;;;14.70;99.90;;;;;;2620490;54;21019;-85
2023/07/13 22:47:59;;;;;;;14.07;7.53;;;14.70;99.90;;;;;;2621549;54;20121;-85
2023/07/13 22:53:47;;;;;;;8.93;7.40;;;14.60;99.90;;;;;;2619713;54;20246;-85
2023/07/13 22:59:36;;;;;;;11.03;7.10;;;14.40;99.90;;;;;;2617729;54;20134;-79
2023/07/13 23:05:24;;;;;;;8.13;7.07;;;14.50;99.90;;;;;;2613733;54;21017;-78
2023/07/13 23:11:14;;;;;;;15.17;8.53;;;14.50;99.90;;;;;;2616052;54;20227;-78
2023/07/13 23:17:02;;;;;;;11.30;8.13;;;14.80;99.90;;;;;;2616291;54;20395;-79
2023/07/13 23:20:14;;;;;;;9.83;7.33;;;14.80;99.90;;;;;;2614180;47;20427;-78
2023/07/13 23:22:41;;;;;;;18.80;8.90;;;14.90;99.90;;;;;;2613410;47;20219;-79
2023/07/13 23:28:29;;;;;;;17.40;8.90;;;15.00;99.90;;;;;;2614601;54;20458;-80
2023/07/13 23:34:18;;;;;;;19.37;8.30;;;14.70;99.90;;;;;;2615299;54;20684;-77
2023/07/13 23:46:34;;;;;;;10.60;7.77;;;14.60;99.90;;;;;;2615335;54;20970;-78
2023/07/13 23:52:23;;;;;;;11.27;8.57;;;14.40;99.90;;;;;;2616263;54;20374;-79
2023/07/13 23:58:11;;;;;;;10.13;7.17;;;14.30;99.90;;;;;;2613731;54;20404;-78
